createdAt,value
2022-12-01T10:43:39.544Z,1.70
2022-12-01T10:46:32.811Z,1.52
2022-12-01T10:49:07.822Z,1.31
2022-12-01T10:51:48.542Z,1.40
2022-12-01T10:54:16.474Z,1.26
2022-12-01T10:56:47.833Z,1.34
2022-12-01T10:59:22.734Z,1.42
2022-12-01T11:01:50.651Z,1.31
2022-12-01T11:04:45.351Z,1.57
2022-12-01T11:07:20.927Z,1.63
2022-12-01T11:10:06.513Z,1.63
2022-12-01T11:12:35.102Z,1.71
2022-12-01T11:15:03.442Z,1.43
2022-12-01T11:17:36.205Z,1.53
2022-12-01T11:20:28.238Z,1.58
2022-12-01T11:23:26.752Z,1.63
2022-12-01T11:26:34.615Z,1.61
2022-12-01T11:29:07.327Z,1.54
2022-12-01T11:31:48.162Z,1.70
2022-12-01T11:34:22.703Z,1.52
2022-12-01T11:36:53.876Z,1.53
2022-12-01T11:39:32.754Z,1.44
2022-12-01T11:42:03.578Z,1.48
2022-12-01T11:47:24.798Z,1.58
2022-12-01T11:50:01.819Z,1.71
2022-12-01T11:52:48.047Z,1.69
2022-12-01T11:55:15.629Z,1.64
2022-12-01T11:57:48.792Z,1.41
2022-12-01T12:00:44.009Z,1.47
2022-12-01T12:03:16.961Z,1.50
2022-12-01T12:06:38.968Z,1.38
2022-12-01T12:09:10.876Z,1.37
2022-12-01T12:11:52.687Z,1.43
2022-12-01T12:14:53.017Z,1.42
2022-12-01T12:17:35.161Z,1.32
2022-12-01T12:20:43.626Z,1.31
2022-12-01T12:23:20.117Z,1.36
2022-12-01T12:26:05.907Z,1.53
2022-12-01T12:28:53.652Z,1.23
2022-12-01T12:31:39.236Z,1.55
2022-12-01T12:37:05.098Z,1.37
2022-12-01T12:39:57.262Z,1.31
2022-12-01T12:42:52.718Z,1.08
2022-12-01T12:46:11.430Z,1.08
2022-12-01T12:49:21.933Z,0.98
2022-12-01T12:51:55.596Z,0.88
2022-12-01T12:54:46.003Z,0.71
2022-12-01T12:57:33.363Z,0.95
2022-12-01T13:00:03.214Z,0.75
2022-12-01T13:02:41.408Z,0.97
2022-12-01T13:05:17.876Z,0.72
2022-12-01T13:07:56.570Z,0.97
2022-12-01T13:11:11.673Z,1.00
2022-12-01T13:14:03.326Z,0.95
2022-12-01T13:16:48.261Z,0.94
2022-12-01T13:19:27.540Z,0.66
2022-12-01T13:21:56.008Z,0.52
2022-12-01T13:24:30.599Z,0.44
2022-12-01T13:27:03.371Z,0.54
2022-12-01T13:29:38.396Z,0.60
2022-12-01T13:32:27.618Z,0.72
2022-12-01T13:34:55.586Z,0.52
2022-12-01T13:37:30.169Z,0.74
2022-12-01T13:40:20.318Z,0.68
2022-12-01T13:43:05.457Z,0.73
2022-12-01T13:45:38.729Z,0.66
2022-12-01T13:48:25.427Z,0.61
2022-12-01T13:50:52.972Z,0.44
2022-12-01T13:53:20.104Z,0.34
2022-12-01T13:56:16.851Z,0.60
2022-12-01T13:58:50.681Z,0.55
2022-12-01T14:01:21.700Z,0.47
2022-12-01T14:04:11.095Z,0.52
2022-12-01T14:06:46.724Z,0.45
2022-12-01T14:09:36.212Z,0.47
2022-12-01T14:12:20.078Z,0.49
2022-12-01T14:15:00.774Z,0.50
2022-12-01T14:17:34.992Z,0.38
2022-12-01T14:20:19.079Z,0.42
2022-12-01T14:22:50.528Z,0.30
2022-12-01T14:25:20.888Z,0.30
2022-12-01T14:27:54.668Z,0.27
2022-12-01T14:30:45.292Z,0.34
2022-12-01T14:33:41.049Z,0.34
2022-12-01T14:36:27.373Z,0.30
2022-12-01T14:38:57.937Z,0.19
2022-12-01T14:41:26.589Z,0.07
2022-12-01T14:44:05.019Z,0.23
2022-12-01T14:46:55.048Z,0.23
2022-12-01T14:49:27.644Z,0.04
2022-12-01T14:52:02.988Z,0.04
2022-12-01T14:54:39.342Z,0.07
2022-12-01T14:57:11.047Z,-0.02
2022-12-01T14:59:41.438Z,-0.15
2022-12-01T15:02:12.310Z,-0.04
2022-12-01T15:05:08.121Z,0.07
2022-12-01T15:07:45.957Z,0.09
2022-12-01T15:10:37.441Z,0.22
2022-12-01T15:13:22.878Z,0.14
2022-12-01T15:15:53.787Z,0.04
2022-12-01T15:18:28.578Z,-0.10
2022-12-01T15:21:01.317Z,-0.05
2022-12-01T15:23:28.646Z,-0.20
2022-12-01T15:25:56.573Z,-0.07
2022-12-01T15:28:35.691Z,0.01
2022-12-01T15:31:12.753Z,0.01
2022-12-01T15:33:52.262Z,0.02
2022-12-01T15:36:20.473Z,-0.15
2022-12-01T15:38:49.716Z,-0.05
2022-12-01T15:41:30.652Z,0.01
2022-12-01T15:44:03.807Z,0.10
2022-12-01T15:46:34.771Z,-0.02
2022-12-01T15:49:20.744Z,-0.03
2022-12-01T15:51:50.465Z,-0.04
2022-12-01T15:54:25.448Z,0.04
2022-12-01T15:56:59.084Z,0.03
2022-12-01T15:59:37.070Z,0.05
2022-12-01T16:02:15.727Z,0.04
2022-12-01T16:04:43.827Z,0.05
2022-12-01T16:07:11.852Z,-0.08
2022-12-01T16:09:42.347Z,-0.05
2022-12-01T16:12:09.843Z,-0.19
2022-12-01T16:14:37.417Z,-0.15
2022-12-01T16:17:09.321Z,0.18
2022-12-01T16:19:39.155Z,-0.01
2022-12-01T16:22:22.524Z,0.26
2022-12-01T16:24:54.137Z,0.01
2022-12-01T16:27:28.412Z,0.09
2022-12-01T16:30:02.487Z,0.10
2022-12-01T16:32:39.349Z,0.09
2022-12-01T16:35:22.451Z,-0.08
2022-12-01T16:37:50.036Z,-0.21
2022-12-01T16:40:17.929Z,-0.23
2022-12-01T16:42:47.416Z,-0.15
2022-12-01T16:45:15.142Z,-0.04
2022-12-01T16:47:43.979Z,0.07
2022-12-01T16:50:19.019Z,0.23
2022-12-01T16:52:46.954Z,0.03
2022-12-01T16:55:52.672Z,0.20
2022-12-01T16:58:20.532Z,0.09
2022-12-01T17:00:53.066Z,0.12
2022-12-01T17:03:26.767Z,0.27
2022-12-01T17:05:55.385Z,0.20
2022-12-01T17:08:23.397Z,-0.01
2022-12-01T17:10:51.664Z,-0.02
2022-12-01T17:13:23.599Z,0.06
2022-12-01T17:15:53.958Z,0.08
2022-12-01T17:18:24.383Z,-0.02
2022-12-01T17:21:00.931Z,-0.02
2022-12-01T17:23:30.280Z,0.04
2022-12-01T17:26:00.119Z,-0.09
2022-12-01T17:28:28.399Z,-0.13
2022-12-01T17:31:00.615Z,0.06
2022-12-01T17:33:28.497Z,-0.19
2022-12-01T17:35:59.157Z,-0.21
2022-12-01T17:38:26.810Z,-0.17
2022-12-01T17:41:06.578Z,0.10
2022-12-01T17:43:35.911Z,0.02
2022-12-01T17:46:04.440Z,-0.01
2022-12-01T17:48:40.759Z,0.06
2022-12-01T17:51:09.152Z,-0.23
2022-12-01T17:53:39.730Z,-0.12
2022-12-01T17:56:12.889Z,-0.16
2022-12-01T17:58:41.367Z,-0.21
2022-12-01T18:01:17.177Z,0.04
2022-12-01T18:03:47.277Z,-0.10
2022-12-01T18:06:15.962Z,-0.01
2022-12-01T18:08:43.612Z,0.01
2022-12-01T18:11:14.182Z,0.10
2022-12-01T18:13:44.368Z,0.15
2022-12-01T18:16:18.906Z,-0.02
2022-12-01T18:18:46.865Z,-0.22
2022-12-01T18:21:16.852Z,-0.24
2022-12-01T18:23:55.266Z,-0.09
2022-12-01T18:26:23.472Z,-0.10
2022-12-01T18:29:00.812Z,-0.03
2022-12-01T18:31:30.626Z,-0.16
2022-12-01T18:34:02.720Z,-0.11
2022-12-01T18:36:32.279Z,-0.11
2022-12-01T18:39:01.359Z,-0.14
2022-12-01T18:41:29.189Z,-0.32
2022-12-01T18:43:56.775Z,-0.35
2022-12-01T18:46:24.214Z,-0.38
2022-12-01T18:48:55.606Z,-0.26
2022-12-01T18:51:22.854Z,-0.41
2022-12-01T18:53:54.638Z,-0.12
2022-12-01T18:56:22.018Z,-0.45
2022-12-01T18:58:57.962Z,-0.30
2022-12-01T19:01:32.248Z,-0.18
2022-12-01T19:04:00.869Z,-0.32
2022-12-01T19:06:29.192Z,-0.43
2022-12-01T19:09:01.230Z,-0.34
2022-12-01T19:11:29.335Z,-0.34
2022-12-01T19:13:57.730Z,-0.32
2022-12-01T19:16:25.623Z,-0.29
2022-12-01T19:18:53.752Z,-0.27
2022-12-01T19:21:21.429Z,-0.33
2022-12-01T19:23:50.617Z,-0.27
2022-12-01T19:26:20.330Z,-0.15
2022-12-01T19:28:48.236Z,-0.28
2022-12-01T19:31:19.571Z,-0.26
2022-12-01T19:33:47.829Z,-0.42
2022-12-01T19:36:20.516Z,-0.23
2022-12-01T19:38:48.868Z,-0.37
2022-12-01T19:41:16.325Z,-0.27
2022-12-01T19:43:44.080Z,-0.27
2022-12-01T19:46:16.407Z,-0.07
2022-12-01T19:48:46.248Z,-0.24
2022-12-01T19:51:22.559Z,-0.15
2022-12-01T19:53:53.946Z,-0.44
2022-12-01T19:56:22.330Z,-0.31
2022-12-01T19:58:50.802Z,-0.37
2022-12-01T20:01:19.501Z,-0.28
2022-12-01T20:03:49.959Z,-0.27
2022-12-01T20:06:31.251Z,-0.38
2022-12-01T20:09:01.471Z,-0.32
2022-12-01T20:11:30.256Z,-0.50
2022-12-01T20:13:58.405Z,-0.54
2022-12-01T20:16:28.084Z,-0.36
2022-12-01T20:18:56.216Z,-0.46
2022-12-01T20:21:26.585Z,-0.31
2022-12-01T20:24:00.160Z,-0.26
2022-12-01T20:26:31.276Z,-0.27
2022-12-01T20:29:02.762Z,-0.30
2022-12-01T20:31:32.165Z,-0.48
2022-12-01T20:34:02.768Z,-0.31
2022-12-01T20:36:30.280Z,-0.54
2022-12-01T20:38:58.375Z,-0.48
2022-12-01T20:41:27.060Z,-0.51
2022-12-01T20:43:54.778Z,-0.52
2022-12-01T20:46:22.983Z,-0.52
2022-12-01T20:48:50.968Z,-0.57
2022-12-01T20:51:18.889Z,-0.53
2022-12-01T20:54:05.569Z,-0.61
2022-12-01T20:56:34.314Z,-0.53
2022-12-01T20:59:01.863Z,-0.49
2022-12-01T21:01:29.598Z,-0.50
2022-12-01T21:03:57.365Z,-0.45
2022-12-01T21:06:25.198Z,-0.36
2022-12-01T21:08:52.826Z,-0.35
2022-12-01T21:11:41.857Z,-0.17
2022-12-01T21:14:30.236Z,-0.06
2022-12-01T21:17:06.037Z,-0.12
2022-12-01T21:19:47.601Z,-0.13
2022-12-01T21:22:15.427Z,-0.39
2022-12-01T21:24:44.245Z,-0.53
2022-12-01T21:27:16.759Z,-0.39
2022-12-01T21:29:46.930Z,-0.47
2022-12-01T21:32:19.900Z,-0.41
2022-12-01T21:34:48.299Z,-0.58
2022-12-01T21:37:24.649Z,-0.33
2022-12-01T21:39:53.810Z,-0.52
2022-12-01T21:42:25.830Z,-0.57
2022-12-01T21:44:55.659Z,-0.70
2022-12-01T21:47:25.941Z,-0.63
2022-12-01T21:49:56.470Z,-0.74
2022-12-01T21:52:34.770Z,-0.63
2022-12-01T21:55:09.538Z,-0.66
2022-12-01T21:57:43.028Z,-0.62
2022-12-01T22:00:29.241Z,-0.58
2022-12-01T22:03:08.909Z,-0.58
2022-12-01T22:05:41.761Z,-0.65
2022-12-01T22:08:21.177Z,-0.54
2022-12-01T22:10:51.400Z,-0.62
2022-12-01T22:13:22.399Z,-0.47
2022-12-01T22:15:52.709Z,-0.53
2022-12-01T22:18:25.679Z,-0.24
2022-12-01T22:20:54.409Z,-0.31
2022-12-01T22:23:32.199Z,-0.30
2022-12-01T22:26:00.179Z,-0.58
2022-12-01T22:28:27.460Z,-0.43
2022-12-01T22:30:55.364Z,-0.36
2022-12-01T22:33:25.012Z,-0.42
2022-12-01T22:35:53.219Z,-0.48
2022-12-01T22:38:34.182Z,-0.41
2022-12-01T22:41:16.088Z,-0.38
2022-12-01T22:43:56.330Z,-0.39
2022-12-01T22:46:36.073Z,-0.50
2022-12-01T22:49:20.358Z,-0.42
2022-12-01T22:52:26.209Z,-0.27
2022-12-01T22:54:53.733Z,-0.46
2022-12-01T22:57:33.440Z,-0.25
2022-12-01T23:00:15.960Z,-0.22
2022-12-01T23:02:43.957Z,-0.41
2022-12-01T23:05:29.470Z,-0.22
2022-12-01T23:07:57.870Z,-0.48
2022-12-01T23:10:29.360Z,-0.29
2022-12-01T23:13:00.988Z,-0.19
2022-12-01T23:15:37.827Z,-0.18
2022-12-01T23:18:20.642Z,-0.13
2022-12-01T23:20:54.552Z,-0.28
2022-12-01T23:23:27.385Z,-0.13
2022-12-01T23:25:55.259Z,-0.28
2022-12-01T23:28:23.332Z,-0.47
2022-12-01T23:30:54.921Z,-0.21
2022-12-01T23:33:30.381Z,-0.16
2022-12-01T23:36:26.888Z,-0.30
2022-12-01T23:39:01.437Z,-0.15
2022-12-01T23:41:31.647Z,-0.16
2022-12-01T23:44:03.791Z,-0.24
2022-12-01T23:46:32.633Z,-0.25
2022-12-01T23:49:02.972Z,-0.24
2022-12-01T23:51:38.466Z,-0.25
2022-12-01T23:54:18.394Z,-0.20
2022-12-01T23:56:52.325Z,-0.09
2022-12-01T23:59:20.556Z,-0.26
